createdAt,value
2022-09-17T00:00:59.559Z,0
2022-09-17T00:03:58.773Z,0
2022-09-17T00:06:59.051Z,0
2022-09-17T00:09:59.474Z,0.3333333333333333
2022-09-17T00:12:59.004Z,0
2022-09-17T00:15:59.265Z,0
2022-09-17T00:18:58.593Z,0
2022-09-17T00:21:58.740Z,0
2022-09-17T00:24:58.889Z,0
2022-09-17T00:27:58.809Z,0
2022-09-17T00:30:59.360Z,0
2022-09-17T00:33:59.477Z,0
2022-09-17T00:36:58.624Z,0
2022-09-17T00:39:58.688Z,0
2022-09-17T00:42:58.941Z,0
2022-09-17T00:45:59.667Z,0.3333333333333333
2022-09-17T00:48:58.778Z,0
2022-09-17T00:52:00.670Z,0.3333333333333333
2022-09-17T00:54:59.803Z,0
2022-09-17T00:57:59.490Z,0
2022-09-17T01:00:59.232Z,0
2022-09-17T01:03:59.147Z,0
2022-09-17T01:06:58.588Z,0
2022-09-17T01:09:59.308Z,0
2022-09-17T01:12:58.998Z,0
2022-09-17T01:15:59.365Z,0
2022-09-17T01:18:58.063Z,0
2022-09-17T01:21:58.980Z,0
2022-09-17T01:24:59.209Z,0.3333333333333333
2022-09-17T01:27:58.968Z,0
2022-09-17T01:30:59.598Z,0
2022-09-17T01:33:58.630Z,0
2022-09-17T01:36:58.760Z,0
2022-09-17T01:39:59.749Z,1.3333333333333333
2022-09-17T01:42:58.897Z,0.3333333333333333
2022-09-17T01:45:59.672Z,0
2022-09-17T01:48:58.657Z,0.3333333333333333
2022-09-17T01:51:58.645Z,0
2022-09-17T01:54:58.545Z,0
2022-09-17T01:57:58.530Z,0
2022-09-17T02:00:59.704Z,0
2022-09-17T02:03:59.183Z,0
2022-09-17T02:06:58.539Z,0
2022-09-17T02:09:59.113Z,0
2022-09-17T02:12:59.370Z,0
2022-09-17T02:15:59.468Z,0
2022-09-17T02:18:58.558Z,0
2022-09-17T02:21:58.447Z,0
2022-09-17T02:24:59.331Z,0
2022-09-17T02:27:58.962Z,0
2022-09-17T02:30:58.523Z,0
2022-09-17T02:33:58.988Z,0
2022-09-17T02:36:59.101Z,0
2022-09-17T02:39:59.507Z,0
2022-09-17T02:42:58.278Z,0
2022-09-17T02:45:58.959Z,0.6666666666666666
2022-09-17T02:48:58.725Z,0
2022-09-17T02:51:58.825Z,0
2022-09-17T02:54:59.344Z,0
2022-09-17T02:57:58.627Z,0
2022-09-17T03:00:59.155Z,0
2022-09-17T03:03:58.584Z,0
2022-09-17T03:06:58.469Z,0.3333333333333333
2022-09-17T03:09:59.830Z,0
2022-09-17T03:12:59.128Z,0
2022-09-17T03:15:59.496Z,0
2022-09-17T03:18:59.275Z,0
2022-09-17T03:21:59.130Z,0
2022-09-17T03:24:58.789Z,0
2022-09-17T03:27:59.157Z,0.3333333333333333
2022-09-17T03:30:58.675Z,0
2022-09-17T03:33:59.497Z,0
2022-09-17T03:36:59.227Z,0
2022-09-17T03:39:58.982Z,0
2022-09-17T03:42:59.801Z,0
2022-09-17T03:45:59.319Z,0
2022-09-17T03:48:59.072Z,0
2022-09-17T03:52:00.100Z,0
2022-09-17T03:54:59.106Z,0
2022-09-17T03:57:58.549Z,0.3333333333333333
2022-09-17T04:00:59.024Z,0
2022-09-17T04:03:59.155Z,0
2022-09-17T04:06:58.717Z,0
2022-09-17T04:09:59.241Z,0.3333333333333333
2022-09-17T04:12:58.760Z,0.3333333333333333
2022-09-17T04:15:59.295Z,0
2022-09-17T04:18:58.640Z,0
2022-09-17T04:21:58.826Z,0
2022-09-17T04:24:58.469Z,0
2022-09-17T04:27:58.684Z,0
2022-09-17T04:30:59.104Z,0
2022-09-17T04:33:58.814Z,0
2022-09-17T04:36:59.075Z,0
2022-09-17T04:39:59.079Z,0
2022-09-17T04:42:59.191Z,0
2022-09-17T04:45:59.224Z,0.3333333333333333
2022-09-17T04:48:59.035Z,0.6666666666666666
2022-09-17T04:51:59.333Z,1
2022-09-17T04:54:58.481Z,1
2022-09-17T04:57:58.547Z,4
2022-09-17T05:00:59.117Z,6
2022-09-17T05:03:59.190Z,7.333333333333333
2022-09-17T05:06:58.462Z,12
2022-09-17T05:09:58.925Z,18.666666666666668
2022-09-17T05:12:58.868Z,27.333333333333332
2022-09-17T05:15:59.251Z,33.666666666666664
2022-09-17T05:18:59.048Z,33.333333333333336
2022-09-17T05:21:59.578Z,37
2022-09-17T05:28:00.834Z,59.333333333333336
2022-09-17T05:30:59.919Z,61.333333333333336
2022-09-17T05:33:59.471Z,76
2022-09-17T05:36:58.761Z,104
2022-09-17T05:39:59.395Z,85.33333333333333
2022-09-17T05:42:58.801Z,100
2022-09-17T05:45:59.083Z,71.66666666666667
2022-09-17T05:48:58.330Z,83.33333333333333
2022-09-17T05:51:58.517Z,74
2022-09-17T05:54:58.559Z,92
2022-09-17T05:57:58.485Z,69
2022-09-17T06:00:59.573Z,81.33333333333333
2022-09-17T06:03:58.464Z,114.33333333333333
2022-09-17T06:06:58.540Z,144
2022-09-17T06:09:59.635Z,95.33333333333333
2022-09-17T06:12:59.088Z,92
2022-09-17T06:15:59.850Z,65
2022-09-17T06:18:59.053Z,82
2022-09-17T06:21:58.753Z,243.33333333333334
2022-09-17T06:24:58.849Z,256.6666666666667
2022-09-17T06:27:58.851Z,174
2022-09-17T06:30:59.788Z,155
2022-09-17T06:33:59.459Z,172
2022-09-17T06:36:59.108Z,226
2022-09-17T06:39:58.685Z,231.33333333333334
2022-09-17T06:42:58.914Z,272
2022-09-17T06:45:59.556Z,299.6666666666667
2022-09-17T06:48:59.027Z,299
2022-09-17T06:51:59.379Z,269
2022-09-17T06:54:58.666Z,240
2022-09-17T06:57:59.234Z,206.33333333333334
2022-09-17T07:00:59.580Z,184.66666666666666
2022-09-17T07:03:59.385Z,162.66666666666666
2022-09-17T07:06:59.522Z,165
2022-09-17T07:09:59.744Z,182
2022-09-17T07:12:59.218Z,203
2022-09-17T07:15:59.924Z,218
2022-09-17T07:18:58.435Z,215
2022-09-17T07:21:58.524Z,142.66666666666666
2022-09-17T07:24:59.147Z,140.66666666666666
2022-09-17T07:27:58.982Z,223.66666666666666
2022-09-17T07:30:59.087Z,202
2022-09-17T07:33:58.602Z,220.33333333333334
2022-09-17T07:36:58.830Z,270.3333333333333
2022-09-17T07:40:00.134Z,282.6666666666667
2022-09-17T07:42:58.680Z,354
2022-09-17T07:45:59.051Z,361.6666666666667
2022-09-17T07:48:58.775Z,436.6666666666667
2022-09-17T07:51:59.576Z,428
2022-09-17T07:54:58.335Z,365.6666666666667
2022-09-17T07:57:58.285Z,270.6666666666667
2022-09-17T08:00:59.476Z,294.6666666666667
2022-09-17T08:03:58.542Z,237.66666666666666
2022-09-17T08:06:58.995Z,248.33333333333334
2022-09-17T08:09:59.423Z,298.6666666666667
2022-09-17T08:12:58.321Z,310.3333333333333
2022-09-17T08:15:59.546Z,241.66666666666666
2022-09-17T08:18:58.321Z,239.33333333333334
2022-09-17T08:21:58.369Z,276
2022-09-17T08:24:58.473Z,325.3333333333333
2022-09-17T08:27:58.196Z,349
2022-09-17T08:30:59.094Z,486.3333333333333
2022-09-17T08:33:59.237Z,733.6666666666666
2022-09-17T08:36:59.107Z,788
2022-09-17T08:39:59.364Z,839
2022-09-17T08:42:58.854Z,762.6666666666666
2022-09-17T08:45:59.657Z,838.6666666666666
2022-09-17T08:48:58.254Z,932
2022-09-17T08:51:58.400Z,942.3333333333334
2022-09-17T08:54:58.786Z,808.3333333333334
2022-09-17T08:57:58.896Z,761.3333333333334
2022-09-17T09:00:59.249Z,387.3333333333333
2022-09-17T09:03:58.855Z,282.3333333333333
2022-09-17T09:06:59.030Z,213
2022-09-17T09:09:59.680Z,256.3333333333333
2022-09-17T09:12:59.298Z,245.33333333333334
2022-09-17T09:15:58.694Z,358.6666666666667
2022-09-17T09:18:58.574Z,383
2022-09-17T09:21:58.454Z,389.3333333333333
2022-09-17T09:24:58.897Z,295.3333333333333
2022-09-17T09:27:59.580Z,278.3333333333333
2022-09-17T09:30:59.309Z,264.6666666666667
2022-09-17T09:33:59.255Z,500.3333333333333
2022-09-17T09:36:59.299Z,560.3333333333334
2022-09-17T09:39:59.082Z,530.3333333333334
2022-09-17T09:42:59.446Z,342.3333333333333
2022-09-17T09:45:59.255Z,369
2022-09-17T09:48:58.996Z,181
2022-09-17T09:51:59.073Z,422
2022-09-17T09:54:58.523Z,234.66666666666666
2022-09-17T09:57:58.833Z,416
2022-09-17T10:00:58.941Z,197.66666666666666
2022-09-17T10:03:58.712Z,346.3333333333333
2022-09-17T10:06:58.693Z,425.3333333333333
2022-09-17T10:09:58.800Z,310.6666666666667
2022-09-17T10:12:58.814Z,466
2022-09-17T10:15:59.241Z,429.3333333333333
2022-09-17T10:18:58.705Z,373.6666666666667
2022-09-17T10:21:58.616Z,380.6666666666667
2022-09-17T10:24:58.606Z,334
2022-09-17T10:27:58.885Z,312.3333333333333
2022-09-17T10:30:59.567Z,402.6666666666667
2022-09-17T10:33:59.204Z,560
2022-09-17T10:36:59.261Z,567
2022-09-17T10:39:59.440Z,637.6666666666666
2022-09-17T10:42:58.330Z,656.6666666666666
2022-09-17T10:45:58.402Z,673.3333333333334
2022-09-17T10:48:58.799Z,635.3333333333334
2022-09-17T10:51:59.014Z,546.6666666666666
2022-09-17T10:54:59.070Z,552.3333333333334
2022-09-17T10:57:58.681Z,776.6666666666666
2022-09-17T11:00:59.307Z,858
2022-09-17T11:04:15.933Z,846.3333333333334
2022-09-17T11:06:59.405Z,927.6666666666666
2022-09-17T11:09:59.379Z,865.3333333333334
2022-09-17T11:12:59.034Z,927.6666666666666
2022-09-17T11:15:59.609Z,895
2022-09-17T11:18:58.716Z,795
2022-09-17T11:21:58.716Z,612.6666666666666
2022-09-17T11:24:59.410Z,659.3333333333334
2022-09-17T11:27:58.699Z,718
2022-09-17T11:30:58.989Z,668
2022-09-17T11:33:58.719Z,864
2022-09-17T11:36:59.091Z,937
2022-09-17T11:39:59.836Z,869.6666666666666
2022-09-17T11:42:59.810Z,869
2022-09-17T11:45:59.454Z,935.3333333333334
2022-09-17T11:48:58.385Z,921.6666666666666
2022-09-17T11:51:58.360Z,947.6666666666666
2022-09-17T11:54:59.490Z,859.3333333333334
2022-09-17T11:57:59.327Z,941.6666666666666
2022-09-17T12:00:59.592Z,940.6666666666666
2022-09-17T12:03:59.155Z,834.3333333333334
2022-09-17T12:06:59.190Z,942
2022-09-17T12:10:04.669Z,934.6666666666666
2022-09-17T12:12:58.671Z,925.6666666666666
2022-09-17T12:15:59.225Z,942
2022-09-17T12:18:58.885Z,943.3333333333334
2022-09-17T12:21:58.856Z,947
2022-09-17T12:24:58.870Z,944.6666666666666
2022-09-17T12:27:59.506Z,933.3333333333334
2022-09-17T12:30:58.611Z,949.6666666666666
2022-09-17T12:33:58.738Z,945
2022-09-17T12:36:58.943Z,945.3333333333334
2022-09-17T12:39:59.563Z,944
2022-09-17T12:42:59.092Z,941.6666666666666
2022-09-17T12:45:59.644Z,942
2022-09-17T12:48:59.156Z,937.3333333333334
2022-09-17T12:51:58.500Z,906.3333333333334
2022-09-17T12:54:59.206Z,878
2022-09-17T12:57:58.514Z,819.3333333333334
2022-09-17T13:00:59.625Z,763.6666666666666
2022-09-17T13:03:58.526Z,703.3333333333334
2022-09-17T13:06:59.015Z,442.6666666666667
2022-09-17T13:09:59.391Z,410.6666666666667
2022-09-17T13:12:58.423Z,331
2022-09-17T13:15:59.428Z,383.6666666666667
2022-09-17T13:19:15.618Z,407.3333333333333
2022-09-17T13:21:58.995Z,464.3333333333333
2022-09-17T13:24:58.972Z,505.3333333333333
2022-09-17T13:27:59.085Z,532
2022-09-17T13:30:59.677Z,459
2022-09-17T13:33:59.104Z,368
2022-09-17T13:36:59.485Z,349
2022-09-17T13:39:59.496Z,386
2022-09-17T13:42:58.810Z,330.3333333333333
2022-09-17T13:45:59.187Z,410
2022-09-17T13:48:59.133Z,545.3333333333334
2022-09-17T13:51:58.447Z,327.3333333333333
2022-09-17T13:54:58.865Z,232.33333333333334
2022-09-17T13:57:58.896Z,157.66666666666666
2022-09-17T14:00:59.755Z,209.33333333333334
2022-09-17T14:03:59.409Z,365.6666666666667
2022-09-17T14:06:58.639Z,435.3333333333333
2022-09-17T14:09:58.561Z,426.6666666666667
2022-09-17T14:12:58.527Z,413.6666666666667
2022-09-17T14:15:59.413Z,498.6666666666667
2022-09-17T14:18:59.334Z,402
2022-09-17T14:21:58.877Z,369.6666666666667
2022-09-17T14:24:58.655Z,372.3333333333333
2022-09-17T14:27:58.820Z,443
2022-09-17T14:30:59.708Z,379.6666666666667
2022-09-17T14:33:58.552Z,361.6666666666667
2022-09-17T14:36:58.998Z,361.3333333333333
2022-09-17T14:39:59.330Z,392.6666666666667
2022-09-17T14:42:59.080Z,402
2022-09-17T14:45:59.366Z,303.3333333333333
2022-09-17T14:48:59.174Z,326.6666666666667
2022-09-17T14:51:58.949Z,503
2022-09-17T14:54:59.005Z,448.3333333333333
2022-09-17T14:57:59.369Z,454.3333333333333
2022-09-17T15:00:59.215Z,550.6666666666666
2022-09-17T15:03:58.921Z,503.6666666666667
2022-09-17T15:06:58.772Z,462.3333333333333
2022-09-17T15:09:58.821Z,462.3333333333333
2022-09-17T15:12:59.047Z,357.3333333333333
2022-09-17T15:15:58.894Z,378
2022-09-17T15:18:59.189Z,404.3333333333333
2022-09-17T15:21:58.702Z,314.3333333333333
2022-09-17T15:24:58.998Z,387.3333333333333
2022-09-17T15:27:58.721Z,298.6666666666667
2022-09-17T15:30:59.475Z,213.33333333333334
2022-09-17T15:33:59.025Z,245.33333333333334
2022-09-17T15:36:59.159Z,296
2022-09-17T15:40:02.150Z,273.3333333333333
2022-09-17T15:42:59.308Z,255.66666666666666
2022-09-17T15:45:58.833Z,313
2022-09-17T15:48:58.762Z,321.6666666666667
2022-09-17T15:51:59.103Z,260
2022-09-17T15:54:59.277Z,209.66666666666666
2022-09-17T15:57:58.642Z,177.66666666666666
2022-09-17T16:00:59.161Z,204
2022-09-17T16:03:59.026Z,273.6666666666667
2022-09-17T16:06:59.300Z,299.6666666666667
2022-09-17T16:09:58.856Z,323
2022-09-17T16:12:59.513Z,336.6666666666667
2022-09-17T16:15:58.731Z,201
2022-09-17T16:18:59.012Z,171.33333333333334
2022-09-17T16:21:59.360Z,190
2022-09-17T16:24:58.671Z,242.66666666666666
2022-09-17T16:27:59.000Z,201
2022-09-17T16:30:59.577Z,194.66666666666666
2022-09-17T16:33:58.918Z,169.66666666666666
2022-09-17T16:36:59.474Z,97.33333333333333
2022-09-17T16:39:59.388Z,62
2022-09-17T16:42:58.742Z,61.333333333333336
2022-09-17T16:45:58.589Z,62.666666666666664
2022-09-17T16:48:58.918Z,41.333333333333336
2022-09-17T16:51:59.400Z,51
2022-09-17T16:54:59.076Z,95
2022-09-17T16:57:58.552Z,147.66666666666666
2022-09-17T17:00:59.851Z,85.66666666666667
2022-09-17T17:03:59.150Z,54.333333333333336
2022-09-17T17:06:58.942Z,34
2022-09-17T17:09:59.027Z,24.666666666666668
2022-09-17T17:12:59.352Z,24.333333333333332
2022-09-17T17:15:59.439Z,23
2022-09-17T17:18:58.997Z,10
2022-09-17T17:21:59.105Z,7.333333333333333
2022-09-17T17:24:58.841Z,5.333333333333333
2022-09-17T17:27:58.884Z,4.333333333333333
2022-09-17T17:30:59.902Z,5.333333333333333
2022-09-17T17:33:58.919Z,3
2022-09-17T17:36:58.720Z,1.3333333333333333
2022-09-17T17:39:58.695Z,0.3333333333333333
2022-09-17T17:42:58.897Z,1
2022-09-17T17:45:59.515Z,0.6666666666666666
2022-09-17T17:48:59.342Z,0
2022-09-17T17:51:58.656Z,0
2022-09-17T17:54:59.006Z,0.6666666666666666
2022-09-17T17:58:01.572Z,0
2022-09-17T18:01:26.216Z,0
2022-09-17T18:03:58.747Z,0
2022-09-17T18:06:59.145Z,0.3333333333333333
2022-09-17T18:09:59.111Z,0.3333333333333333
2022-09-17T18:12:59.316Z,0
2022-09-17T18:15:59.329Z,0
2022-09-17T18:18:59.927Z,0
2022-09-17T18:21:59.627Z,0.3333333333333333
2022-09-17T18:24:58.950Z,0
2022-09-17T18:27:59.211Z,0
2022-09-17T18:30:58.951Z,0
2022-09-17T18:33:59.462Z,0.6666666666666666
2022-09-17T18:36:59.103Z,0
2022-09-17T18:39:59.589Z,0.3333333333333333
2022-09-17T18:42:58.778Z,0
2022-09-17T18:45:59.201Z,0
2022-09-17T18:48:59.055Z,0
2022-09-17T18:51:58.978Z,1
2022-09-17T18:54:59.110Z,0
2022-09-17T18:57:59.583Z,0
2022-09-17T19:00:59.704Z,0
2022-09-17T19:03:59.372Z,0
2022-09-17T19:06:58.562Z,0
2022-09-17T19:09:59.446Z,0
2022-09-17T19:12:58.612Z,0
2022-09-17T19:15:59.004Z,0
2022-09-17T19:18:58.986Z,0.3333333333333333
2022-09-17T19:21:59.506Z,0
2022-09-17T19:24:58.870Z,0
2022-09-17T19:27:59.515Z,0
2022-09-17T19:30:59.152Z,0
2022-09-17T19:33:59.128Z,0
2022-09-17T19:36:58.881Z,0.3333333333333333
2022-09-17T19:39:59.019Z,0
2022-09-17T19:42:59.265Z,0
2022-09-17T19:45:59.630Z,0
2022-09-17T19:48:58.858Z,0
2022-09-17T19:51:59.260Z,0.3333333333333333
2022-09-17T19:54:58.917Z,0
2022-09-17T19:57:59.121Z,0
2022-09-17T20:00:58.825Z,0
2022-09-17T20:03:58.849Z,0.3333333333333333
2022-09-17T20:06:59.146Z,0
2022-09-17T20:09:59.775Z,0
2022-09-17T20:12:59.548Z,0
2022-09-17T20:15:59.685Z,0
2022-09-17T20:18:59.242Z,0
2022-09-17T20:21:59.491Z,0
2022-09-17T20:24:58.782Z,0.6666666666666666
2022-09-17T20:27:59.349Z,0
2022-09-17T20:30:59.502Z,0
2022-09-17T20:33:59.106Z,0
2022-09-17T20:37:12.588Z,0
2022-09-17T20:39:59.520Z,0
2022-09-17T20:42:59.313Z,0
2022-09-17T20:45:59.245Z,0
2022-09-17T20:48:59.567Z,0
2022-09-17T20:51:58.841Z,0
2022-09-17T20:54:59.256Z,0
2022-09-17T20:57:59.414Z,0
2022-09-17T21:00:59.403Z,0
2022-09-17T21:03:59.807Z,0
2022-09-17T21:06:59.462Z,0.3333333333333333
2022-09-17T21:09:59.767Z,0.3333333333333333
2022-09-17T21:12:58.742Z,0
2022-09-17T21:15:59.083Z,0
2022-09-17T21:18:59.334Z,0.3333333333333333
2022-09-17T21:21:58.573Z,0
2022-09-17T21:24:59.508Z,0
2022-09-17T21:27:58.788Z,0
2022-09-17T21:30:59.170Z,0
2022-09-17T21:33:59.631Z,0.6666666666666666
2022-09-17T21:36:59.009Z,0
2022-09-17T21:39:59.063Z,0.3333333333333333
2022-09-17T21:42:59.390Z,0
2022-09-17T21:45:59.586Z,0
2022-09-17T21:48:58.760Z,0
2022-09-17T21:51:58.936Z,0
2022-09-17T21:54:58.511Z,0
2022-09-17T21:57:58.546Z,0.6666666666666666
2022-09-17T22:01:00.013Z,0
2022-09-17T22:03:59.311Z,0
2022-09-17T22:06:58.264Z,0
2022-09-17T22:09:59.007Z,0.6666666666666666
2022-09-17T22:12:58.822Z,0
2022-09-17T22:15:59.290Z,0
2022-09-17T22:18:58.642Z,0
2022-09-17T22:21:58.998Z,0.3333333333333333
2022-09-17T22:24:59.102Z,0.3333333333333333
2022-09-17T22:28:19.977Z,0
2022-09-17T22:30:59.328Z,0
2022-09-17T22:33:59.499Z,0
2022-09-17T22:36:58.568Z,0.3333333333333333
2022-09-17T22:39:59.083Z,0
2022-09-17T22:42:59.416Z,0
2022-09-17T22:45:59.630Z,0
2022-09-17T22:48:58.967Z,0
2022-09-17T22:51:58.302Z,0
2022-09-17T22:54:59.534Z,0
2022-09-17T22:57:58.638Z,0
2022-09-17T23:00:58.833Z,0.3333333333333333
2022-09-17T23:03:59.217Z,1
2022-09-17T23:06:59.347Z,0.3333333333333333
2022-09-17T23:09:59.126Z,0
2022-09-17T23:12:59.112Z,0
2022-09-17T23:15:58.921Z,0
2022-09-17T23:18:59.041Z,0
2022-09-17T23:21:58.928Z,0.3333333333333333
2022-09-17T23:24:59.216Z,0.3333333333333333
2022-09-17T23:27:58.913Z,0
2022-09-17T23:30:59.898Z,0
2022-09-17T23:33:58.804Z,0.3333333333333333
2022-09-17T23:36:59.060Z,0
2022-09-17T23:39:59.308Z,0
2022-09-17T23:42:59.442Z,0.3333333333333333
2022-09-17T23:45:59.643Z,0
2022-09-17T23:48:58.658Z,0
2022-09-17T23:51:58.616Z,0
2022-09-17T23:54:59.073Z,0
2022-09-17T23:57:59.091Z,0.3333333333333333
